Time;durP1;ratioP1;P1;durP2;ratioP2;P2;SDS_P1;SDS_P2;PMS_P1;PMS_P2;Temp;Humidity;BMP_temperature;BMP_pressure;BME280_temperature;BME280_humidity;BME280_pressure;Samples;Min_cycle;Max_cycle;Signal;HPM_P1;HPM_P2
2024/03/05 00:01:14;;;;;;;54.90;30.77;;;7.30;99.90;;;;;;5034040;28;20167;-71
2024/03/05 00:03:40;;;;;;;57.43;33.07;;;7.20;99.90;;;;;;5033436;28;20199;-71
2024/03/05 00:06:06;;;;;;;60.47;33.30;;;7.20;99.90;;;;;;5033460;28;20318;-70
2024/03/05 00:08:32;;;;;;;57.23;31.67;;;7.10;99.90;;;;;;5033381;28;20646;-71
2024/03/05 00:10:59;;;;;;;56.57;31.50;;;7.00;99.90;;;;;;5033329;28;20179;-71
2024/03/05 00:13:25;;;;;;;55.17;32.60;;;7.00;99.90;;;;;;5033206;28;20176;-71
2024/03/05 00:15:52;;;;;;;59.10;33.10;;;7.00;99.90;;;;;;5033007;28;20218;-70
2024/03/05 00:18:18;;;;;;;60.97;32.30;;;6.90;99.90;;;;;;5033347;28;20167;-70
2024/03/05 00:20:43;;;;;;;65.40;34.27;;;6.90;99.90;;;;;;5033196;28;20178;-71
2024/03/05 00:23:09;;;;;;;67.03;34.13;;;6.80;99.90;;;;;;5033444;28;20211;-70
2024/03/05 00:25:35;;;;;;;69.37;33.17;;;6.80;1.00;;;;;;5032908;28;20187;-71
2024/03/05 00:28:00;;;;;;;65.27;33.53;;;6.80;1.00;;;;;;5032902;28;20214;-71
2024/03/05 00:30:26;;;;;;;69.40;32.93;;;6.80;1.00;;;;;;5033188;28;20171;-71
2024/03/05 00:32:52;;;;;;;66.50;34.93;;;6.80;1.00;;;;;;5033093;28;20238;-70
2024/03/05 00:35:18;;;;;;;62.83;33.03;;;6.90;1.00;;;;;;5033103;28;20203;-70
2024/03/05 00:37:43;;;;;;;69.47;35.03;;;6.90;99.90;;;;;;5033185;28;20247;-70
2024/03/05 00:40:09;;;;;;;69.33;34.27;;;6.90;99.90;;;;;;5032556;28;20175;-70
2024/03/05 00:42:35;;;;;;;71.53;34.10;;;6.80;99.90;;;;;;5032245;28;20210;-70
2024/03/05 00:45:01;;;;;;;67.73;33.47;;;6.90;99.90;;;;;;5032350;28;20706;-70
2024/03/05 00:47:29;;;;;;;63.83;33.50;;;6.90;99.90;;;;;;5032433;28;20167;-70
2024/03/05 00:49:55;;;;;;;70.13;35.93;;;6.90;99.90;;;;;;5032531;28;20190;-71
2024/03/05 00:52:21;;;;;;;68.97;36.77;;;6.90;99.90;;;;;;5033300;28;20171;-73
2024/03/05 00:54:46;;;;;;;74.67;35.87;;;7.00;99.90;;;;;;5032709;28;20569;-70
2024/03/05 00:57:12;;;;;;;63.40;33.83;;;7.10;99.90;;;;;;5033053;28;20184;-71
2024/03/05 00:59:38;;;;;;;72.33;35.43;;;7.10;99.90;;;;;;5032947;28;20176;-72
2024/03/05 01:02:04;;;;;;;66.63;35.77;;;7.10;99.90;;;;;;5031516;28;20330;-71
2024/03/05 01:04:30;;;;;;;69.60;35.03;;;7.20;99.90;;;;;;5032394;28;20196;-71
2024/03/05 01:06:57;;;;;;;72.57;35.90;;;7.20;99.90;;;;;;5032524;28;20332;-70
2024/03/05 01:09:24;;;;;;;68.97;34.83;;;7.20;99.90;;;;;;5032156;28;20182;-71
2024/03/05 01:11:52;;;;;;;61.77;32.87;;;7.30;99.90;;;;;;5032430;28;20179;-70
2024/03/05 01:14:18;;;;;;;77.63;35.63;;;7.30;99.90;;;;;;5032271;28;20279;-71
2024/03/05 01:16:44;;;;;;;66.70;33.67;;;7.40;99.90;;;;;;5032544;28;20184;-72
2024/03/05 01:19:12;;;;;;;63.10;35.83;;;7.50;99.90;;;;;;5031720;28;20194;-71
2024/03/05 01:21:38;;;;;;;69.63;34.07;;;7.50;99.90;;;;;;5032003;28;20516;-71
2024/03/05 01:24:04;;;;;;;60.30;33.33;;;7.50;99.90;;;;;;5032181;28;20260;-72
2024/03/05 01:26:29;;;;;;;62.77;34.90;;;7.50;99.90;;;;;;5031914;28;20176;-70
2024/03/05 01:28:55;;;;;;;61.07;35.33;;;7.60;99.90;;;;;;5031783;28;20313;-70
2024/03/05 01:31:22;;;;;;;62.60;33.97;;;7.60;99.90;;;;;;5031927;28;20171;-70
2024/03/05 01:33:48;;;;;;;62.27;33.83;;;7.60;99.90;;;;;;5031571;28;20675;-71
2024/03/05 01:36:15;;;;;;;63.27;33.37;;;7.50;99.90;;;;;;5031421;28;20179;-71
2024/03/05 01:38:42;;;;;;;58.83;32.97;;;7.50;99.90;;;;;;5013868;28;20210;-71
2024/03/05 01:41:07;;;;;;;61.73;32.67;;;7.40;99.90;;;;;;5031663;28;20179;-71
2024/03/05 01:43:33;;;;;;;61.73;32.10;;;7.30;99.90;;;;;;5031160;28;20228;-71
2024/03/05 01:45:59;;;;;;;58.03;31.80;;;7.20;99.90;;;;;;5031115;28;20647;-71
2024/03/05 01:48:26;;;;;;;68.73;34.70;;;7.10;99.90;;;;;;5031727;28;20203;-70
2024/03/05 01:50:52;;;;;;;64.90;34.17;;;7.00;99.90;;;;;;5031317;28;20175;-71
2024/03/05 01:53:18;;;;;;;64.67;33.90;;;6.90;99.90;;;;;;5031310;28;20190;-70
2024/03/05 01:55:46;;;;;;;70.27;34.90;;;6.90;99.90;;;;;;5031314;28;20241;-70
2024/03/05 01:58:15;;;;;;;66.40;33.83;;;6.90;99.90;;;;;;5031873;28;20183;-70
2024/03/05 02:00:41;;;;;;;67.70;32.53;;;6.90;99.90;;;;;;5031365;28;20203;-71
2024/03/05 02:03:07;;;;;;;69.33;32.13;;;7.00;99.90;;;;;;5031237;28;20269;-71
2024/03/05 02:05:33;;;;;;;66.53;32.97;;;7.00;99.90;;;;;;5031300;28;20279;-71
2024/03/05 02:08:00;;;;;;;70.67;33.57;;;7.00;99.90;;;;;;5030974;28;20179;-71
2024/03/05 02:10:26;;;;;;;61.73;32.47;;;7.00;99.90;;;;;;5030979;28;20593;-71
2024/03/05 02:12:52;;;;;;;63.97;32.60;;;7.10;99.90;;;;;;5030536;28;20245;-71
2024/03/05 02:15:19;;;;;;;67.60;33.97;;;7.20;99.90;;;;;;5031044;28;20236;-71
2024/03/05 02:17:45;;;;;;;72.57;35.23;;;7.10;99.90;;;;;;5031525;28;20635;-71
2024/03/05 02:20:14;;;;;;;60.73;32.03;;;7.10;99.90;;;;;;5031069;28;20732;-71
2024/03/05 02:22:41;;;;;;;67.43;34.00;;;7.10;99.90;;;;;;5030904;28;20203;-71
2024/03/05 02:25:07;;;;;;;66.93;33.47;;;7.10;99.90;;;;;;5030809;28;20203;-71
2024/03/05 02:27:35;;;;;;;65.90;35.23;;;7.20;99.90;;;;;;5031336;28;20704;-70
2024/03/05 02:30:02;;;;;;;64.97;33.03;;;7.10;99.90;;;;;;5030866;28;20237;-71
2024/03/05 02:32:29;;;;;;;61.83;32.67;;;7.00;99.90;;;;;;5031153;28;20171;-71
2024/03/05 02:34:54;;;;;;;63.17;32.60;;;7.00;99.90;;;;;;5030992;28;20248;-71
2024/03/05 02:37:23;;;;;;;71.00;36.37;;;7.00;99.90;;;;;;5031488;28;20583;-72
2024/03/05 02:39:49;;;;;;;74.70;34.80;;;7.10;99.90;;;;;;5030350;28;20249;-71
2024/03/05 02:42:15;;;;;;;75.20;37.43;;;7.10;99.90;;;;;;5030947;28;20222;-70
2024/03/05 02:44:40;;;;;;;67.43;34.10;;;7.10;99.90;;;;;;5030741;28;20207;-71
2024/03/05 02:47:09;;;;;;;68.77;32.27;;;7.10;99.90;;;;;;5030709;28;20215;-70
2024/03/05 02:49:36;;;;;;;69.57;34.10;;;7.20;99.90;;;;;;5030783;28;20176;-70
2024/03/05 02:52:02;;;;;;;65.40;33.70;;;7.20;99.90;;;;;;5030998;28;20176;-70
2024/03/05 02:54:28;;;;;;;72.47;35.77;;;7.20;99.90;;;;;;5030829;28;20246;-70
2024/03/05 02:56:53;;;;;;;70.63;35.40;;;7.20;99.90;;;;;;5030638;28;20183;-71
2024/03/05 02:59:19;;;;;;;75.37;35.80;;;7.20;99.90;;;;;;5030741;28;20175;-71
2024/03/05 03:01:50;;;;;;;74.17;34.07;;;7.20;99.90;;;;;;5030698;28;20610;-71
2024/03/05 03:04:15;;;;;;;70.60;34.87;;;7.20;99.90;;;;;;5030786;28;20685;-71
2024/03/05 03:06:41;;;;;;;73.83;34.93;;;7.20;99.90;;;;;;5030955;28;20171;-71
2024/03/05 03:09:07;;;;;;;70.90;34.63;;;7.20;99.90;;;;;;5030605;28;20168;-72
2024/03/05 03:11:34;;;;;;;70.33;34.40;;;7.30;99.90;;;;;;5030845;28;20172;-71
2024/03/05 03:14:00;;;;;;;67.67;35.40;;;7.30;99.90;;;;;;5030567;28;20702;-70
2024/03/05 03:16:26;;;;;;;69.73;36.10;;;7.30;99.90;;;;;;5013091;28;20198;-71
2024/03/05 03:18:51;;;;;;;70.07;35.03;;;7.30;99.90;;;;;;5013050;28;20186;-71
2024/03/05 03:21:17;;;;;;;67.77;34.57;;;7.40;99.90;;;;;;5031071;28;20662;-72
2024/03/05 03:23:44;;;;;;;72.13;35.07;;;7.50;99.90;;;;;;5030980;28;20285;-71
2024/03/05 03:26:11;;;;;;;72.60;35.73;;;7.40;99.90;;;;;;5034314;28;20639;-71
2024/03/05 03:28:37;;;;;;;72.60;38.43;;;7.50;99.90;;;;;;5034468;28;20175;-71
2024/03/05 03:31:05;;;;;;;69.83;35.33;;;7.50;99.90;;;;;;5034317;28;20322;-71
2024/03/05 03:33:31;;;;;;;71.83;34.63;;;7.60;99.90;;;;;;5033885;28;20183;-71
2024/03/05 03:35:57;;;;;;;74.57;35.07;;;7.60;99.90;;;;;;5034071;28;20176;-71
2024/03/05 03:38:23;;;;;;;70.57;35.97;;;7.60;99.90;;;;;;5034368;28;20172;-71
2024/03/05 03:40:49;;;;;;;66.93;34.50;;;7.60;99.90;;;;;;5033916;28;20229;-71
2024/03/05 03:43:15;;;;;;;72.43;34.53;;;7.60;99.90;;;;;;5033986;28;20203;-71
2024/03/05 03:45:41;;;;;;;71.57;36.23;;;7.60;99.90;;;;;;5033466;28;20278;-71
2024/03/05 03:48:07;;;;;;;73.37;37.30;;;7.70;99.90;;;;;;5033889;28;20184;-71
2024/03/05 03:50:33;;;;;;;76.83;36.70;;;7.70;99.90;;;;;;5033821;28;20571;-71
2024/03/05 03:52:59;;;;;;;74.07;36.53;;;7.70;99.90;;;;;;5034017;28;20187;-71
2024/03/05 03:55:26;;;;;;;72.73;37.80;;;7.70;99.90;;;;;;5033831;28;20200;-71
2024/03/05 03:57:52;;;;;;;65.63;34.83;;;7.70;99.90;;;;;;5033861;28;20240;-71
2024/03/05 04:00:18;;;;;;;70.97;36.23;;;7.70;99.90;;;;;;5016935;28;20218;-71
2024/03/05 04:02:45;;;;;;;69.30;35.93;;;7.80;99.90;;;;;;5035880;28;20686;-71
2024/03/05 04:05:11;;;;;;;74.60;38.07;;;7.80;99.90;;;;;;5033485;28;20233;-71
2024/03/05 04:07:37;;;;;;;65.20;35.60;;;7.80;99.90;;;;;;5033594;28;20179;-71
2024/03/05 04:10:10;;;;;;;75.47;35.60;;;7.80;99.90;;;;;;5033639;28;20176;-72
2024/03/05 04:12:36;;;;;;;70.87;36.93;;;7.80;99.90;;;;;;5033755;28;20298;-71
2024/03/05 04:15:03;;;;;;;73.17;37.87;;;7.80;99.90;;;;;;5033371;28;20202;-71
2024/03/05 04:17:29;;;;;;;72.37;36.80;;;7.70;99.90;;;;;;5033606;28;20237;-71
2024/03/05 04:19:55;;;;;;;64.87;35.47;;;7.70;99.90;;;;;;5033686;28;20207;-71
2024/03/05 04:22:21;;;;;;;68.03;35.80;;;7.70;99.90;;;;;;5033373;28;20203;-71
2024/03/05 04:24:52;;;;;;;72.60;36.07;;;7.70;99.90;;;;;;5033057;28;20785;-71
2024/03/05 04:27:26;;;;;;;64.80;34.43;;;7.70;99.90;;;;;;5033956;28;20681;-71
2024/03/05 04:29:56;;;;;;;61.23;33.80;;;7.70;99.90;;;;;;5033401;28;20236;-71
2024/03/05 04:32:22;;;;;;;63.40;34.03;;;7.70;99.90;;;;;;5033719;28;20175;-71
2024/03/05 04:34:50;;;;;;;61.97;34.00;;;7.70;99.90;;;;;;5032732;28;20206;-71
2024/03/05 04:37:17;;;;;;;61.30;32.83;;;7.80;99.90;;;;;;5032798;28;20171;-71
2024/03/05 04:39:42;;;;;;;64.53;33.80;;;7.70;99.90;;;;;;5032818;28;20186;-71
2024/03/05 04:42:09;;;;;;;62.43;33.70;;;7.70;99.90;;;;;;5032605;28;20634;-71
2024/03/05 04:44:35;;;;;;;67.93;34.07;;;7.70;99.90;;;;;;5033234;28;20210;-72
2024/03/05 04:47:02;;;;;;;65.40;33.63;;;7.60;99.90;;;;;;5033020;28;20213;-71
2024/03/05 04:49:29;;;;;;;65.43;33.97;;;7.60;99.90;;;;;;5032974;28;20537;-72
2024/03/05 04:51:55;;;;;;;64.73;35.10;;;7.60;99.90;;;;;;5032866;28;20190;-72
2024/03/05 04:54:21;;;;;;;62.77;31.93;;;7.60;99.90;;;;;;5032570;28;20245;-71
2024/03/05 04:56:47;;;;;;;65.77;33.37;;;7.60;99.90;;;;;;5032202;28;20210;-72
2024/03/05 04:59:13;;;;;;;63.17;32.70;;;7.60;99.90;;;;;;5032536;28;20218;-72
2024/03/05 05:01:39;;;;;;;55.63;31.67;;;7.60;99.90;;;;;;5032714;28;20282;-71
2024/03/05 05:04:05;;;;;;;62.80;32.47;;;7.60;99.90;;;;;;5032426;28;20191;-72
2024/03/05 05:06:32;;;;;;;65.70;31.73;;;7.60;99.90;;;;;;5032485;28;20639;-72
2024/03/05 05:08:58;;;;;;;66.03;36.13;;;7.50;99.90;;;;;;5032555;28;20199;-72
2024/03/05 05:11:23;;;;;;;66.20;33.37;;;7.50;99.90;;;;;;5032568;28;20199;-72
2024/03/05 05:13:49;;;;;;;71.30;35.33;;;7.50;99.90;;;;;;5032194;28;20251;-72
2024/03/05 05:16:15;;;;;;;71.10;35.80;;;7.50;99.90;;;;;;5031864;28;20176;-72
2024/03/05 05:18:40;;;;;;;66.57;34.47;;;7.50;99.90;;;;;;5032420;28;20167;-71
2024/03/05 05:21:07;;;;;;;77.70;36.30;;;7.50;99.90;;;;;;5032298;28;20639;-72
2024/03/05 05:23:34;;;;;;;65.43;35.47;;;7.50;99.90;;;;;;5032286;28;20667;-72
2024/03/05 05:25:59;;;;;;;68.53;34.67;;;7.50;99.90;;;;;;5032503;28;20640;-72
2024/03/05 05:28:25;;;;;;;70.70;34.63;;;7.50;99.90;;;;;;5032251;28;20175;-72
2024/03/05 05:30:50;;;;;;;76.33;36.40;;;7.50;99.90;;;;;;5032197;28;20176;-72
2024/03/05 05:33:17;;;;;;;62.47;33.37;;;7.60;99.90;;;;;;5031702;28;20179;-72
2024/03/05 05:35:43;;;;;;;80.43;38.03;;;7.60;99.90;;;;;;5031888;28;20260;-72
2024/03/05 05:38:11;;;;;;;72.67;33.27;;;7.60;99.90;;;;;;5031954;28;20191;-72
2024/03/05 05:40:37;;;;;;;77.17;35.77;;;7.60;99.90;;;;;;5031145;28;20233;-76
2024/03/05 05:43:04;;;;;;;72.23;36.37;;;7.60;99.90;;;;;;5031743;28;20678;-72
2024/03/05 05:45:29;;;;;;;66.63;34.63;;;7.60;99.90;;;;;;5031677;28;20195;-71
2024/03/05 05:47:56;;;;;;;78.20;36.27;;;7.70;99.90;;;;;;5031641;28;20221;-72
2024/03/05 05:50:25;;;;;;;65.87;34.47;;;7.70;99.90;;;;;;5031392;28;20258;-72
2024/03/05 05:52:55;;;;;;;67.53;33.40;;;7.70;99.90;;;;;;5031861;28;20178;-72
2024/03/05 05:55:24;;;;;;;73.20;34.03;;;7.70;99.90;;;;;;5031394;28;20671;-72
2024/03/05 05:57:51;;;;;;;71.43;35.23;;;7.80;99.90;;;;;;5031647;28;20174;-72
2024/03/05 06:00:37;;;;;;;70.53;34.13;;;7.70;99.90;;;;;;5031575;28;20198;-71
2024/03/05 06:03:11;;;;;;;69.90;34.10;;;7.70;99.90;;;;;;5031651;28;20206;-71
2024/03/05 06:05:37;;;;;;;79.50;35.17;;;7.80;99.90;;;;;;5031527;28;20192;-71
2024/03/05 06:08:07;;;;;;;67.67;33.47;;;7.80;99.90;;;;;;5031489;28;20167;-71
2024/03/05 06:10:33;;;;;;;72.23;35.90;;;7.90;99.90;;;;;;5031530;28;20175;-71
2024/03/05 06:12:59;;;;;;;76.37;35.00;;;7.90;99.90;;;;;;5031577;28;20673;-72
2024/03/05 06:15:28;;;;;;;83.50;37.30;;;7.90;99.90;;;;;;5031546;28;20801;-71
2024/03/05 06:17:55;;;;;;;73.80;34.00;;;7.90;99.90;;;;;;5031621;28;20172;-71
2024/03/05 06:20:21;;;;;;;68.03;33.97;;;8.00;99.90;;;;;;5031314;28;20168;-71
2024/03/05 06:22:48;;;;;;;66.87;35.60;;;8.00;99.90;;;;;;5031009;28;20210;-71
2024/03/05 06:25:17;;;;;;;69.03;35.00;;;8.00;99.90;;;;;;5031004;28;20532;-70
2024/03/05 06:27:43;;;;;;;71.07;35.20;;;8.00;99.90;;;;;;5031021;28;20225;-71
2024/03/05 06:30:15;;;;;;;68.03;34.20;;;8.10;99.90;;;;;;5031522;28;20178;-71
2024/03/05 06:32:43;;;;;;;71.27;36.27;;;8.10;99.90;;;;;;5031037;28;20190;-71
2024/03/05 06:35:12;;;;;;;66.17;33.70;;;8.10;99.90;;;;;;5030811;28;20638;-71
2024/03/05 06:37:45;;;;;;;74.93;35.03;;;8.10;99.90;;;;;;5031202;28;20258;-71
2024/03/05 06:40:11;;;;;;;71.10;34.07;;;8.10;99.90;;;;;;5031017;28;20179;-70
2024/03/05 06:42:39;;;;;;;67.90;34.90;;;8.10;99.90;;;;;;5031558;28;20199;-71
2024/03/05 06:45:08;;;;;;;65.07;33.07;;;8.20;99.90;;;;;;5032124;28;20211;-71
2024/03/05 06:47:46;;;;;;;67.33;34.67;;;8.10;99.90;;;;;;5032814;28;20175;-71
2024/03/05 06:50:23;;;;;;;70.00;34.27;;;8.10;99.90;;;;;;5030668;28;20221;-71
2024/03/05 06:58:19;;;;;;;71.80;33.70;;;8.00;99.90;;;;;;5030959;28;20187;-71
2024/03/05 07:00:46;;;;;;;73.07;34.67;;;8.00;99.90;;;;;;5033262;28;20175;-71
2024/03/05 07:03:15;;;;;;;67.97;33.77;;;8.10;99.90;;;;;;5034756;28;20202;-71
2024/03/05 07:05:42;;;;;;;77.27;35.17;;;8.10;99.90;;;;;;5034503;28;20192;-71
2024/03/05 07:08:08;;;;;;;75.50;34.67;;;8.10;99.90;;;;;;5034581;28;20267;-72
2024/03/05 07:10:35;;;;;;;71.27;34.60;;;8.20;99.90;;;;;;5034435;28;20172;-72
2024/03/05 07:13:01;;;;;;;66.43;33.20;;;8.20;99.90;;;;;;5034676;28;20639;-71
2024/03/05 07:15:27;;;;;;;68.70;32.70;;;8.20;99.90;;;;;;5033850;28;20203;-71
2024/03/05 07:17:52;;;;;;;72.40;34.97;;;8.20;99.90;;;;;;5034581;28;20262;-70
2024/03/05 07:20:18;;;;;;;72.37;35.13;;;8.30;99.90;;;;;;5034291;28;20180;-71
2024/03/05 07:22:47;;;;;;;78.03;34.73;;;8.30;99.90;;;;;;5034223;28;20697;-71
2024/03/05 07:25:14;;;;;;;70.40;35.57;;;8.30;99.90;;;;;;5034022;28;20241;-71
2024/03/05 07:27:42;;;;;;;75.67;34.27;;;8.30;99.90;;;;;;5034679;28;20243;-71
2024/03/05 07:30:11;;;;;;;71.00;35.53;;;8.30;99.90;;;;;;5034159;28;20207;-72
2024/03/05 07:32:37;;;;;;;84.10;37.50;;;8.30;99.90;;;;;;5034311;28;20674;-71
2024/03/05 07:35:08;;;;;;;81.97;34.97;;;8.30;99.90;;;;;;5033697;28;20309;-71
2024/03/05 07:37:34;;;;;;;82.03;36.37;;;8.30;99.90;;;;;;5034132;28;20171;-71
2024/03/05 07:40:09;;;;;;;69.47;35.00;;;8.30;99.90;;;;;;5033576;28;20175;-71
2024/03/05 07:42:40;;;;;;;74.77;33.90;;;8.30;99.90;;;;;;5034076;28;20647;-71
2024/03/05 07:45:07;;;;;;;77.70;36.27;;;8.30;99.90;;;;;;5033989;28;20289;-71
2024/03/05 07:47:33;;;;;;;73.70;35.93;;;8.20;99.90;;;;;;5033490;28;20255;-70
2024/03/05 07:49:59;;;;;;;77.90;35.40;;;8.20;99.90;;;;;;5033620;28;20604;-70
2024/03/05 07:52:24;;;;;;;80.63;35.90;;;8.30;99.90;;;;;;5033829;28;20737;-71
2024/03/05 07:54:50;;;;;;;78.50;36.70;;;8.30;99.90;;;;;;5033410;28;20230;-71
2024/03/05 07:57:16;;;;;;;73.03;35.90;;;8.30;99.90;;;;;;5033772;28;20175;-70
2024/03/05 07:59:42;;;;;;;82.63;36.60;;;8.30;99.90;;;;;;5033788;28;20175;-71
2024/03/05 08:02:08;;;;;;;79.40;36.47;;;8.30;99.90;;;;;;5033537;28;20195;-71
2024/03/05 08:04:34;;;;;;;88.20;37.70;;;8.40;99.90;;;;;;5033820;28;20699;-71
2024/03/05 08:06:59;;;;;;;81.00;36.77;;;8.40;99.90;;;;;;5035444;28;20172;-71
2024/03/05 08:09:25;;;;;;;85.23;37.50;;;8.40;99.90;;;;;;5036649;28;20180;-71
2024/03/05 08:11:51;;;;;;;86.27;36.83;;;8.50;99.90;;;;;;5033804;28;20243;-71
2024/03/05 08:14:16;;;;;;;75.90;36.77;;;8.50;99.90;;;;;;5033414;28;20191;-71
2024/03/05 08:16:42;;;;;;;89.53;37.90;;;8.50;99.90;;;;;;5033430;28;20167;-71
2024/03/05 08:19:07;;;;;;;78.60;37.37;;;8.50;99.90;;;;;;5033437;28;20228;-71
2024/03/05 08:21:34;;;;;;;86.13;37.23;;;8.50;99.90;;;;;;5033261;28;20667;-72
2024/03/05 08:24:02;;;;;;;81.60;36.10;;;8.60;99.90;;;;;;5033184;28;20702;-71
2024/03/05 08:26:27;;;;;;;82.20;36.70;;;8.60;99.90;;;;;;5033120;28;20163;-72
2024/03/05 08:28:53;;;;;;;86.50;37.63;;;8.50;99.90;;;;;;5033436;28;20180;-71
2024/03/05 08:31:19;;;;;;;77.57;36.70;;;8.50;99.90;;;;;;5033204;28;20187;-71
2024/03/05 08:33:44;;;;;;;86.20;36.57;;;8.40;99.90;;;;;;5033269;28;20168;-72
2024/03/05 08:36:11;;;;;;;86.77;36.87;;;8.40;99.90;;;;;;5032325;28;20524;-71
2024/03/05 08:38:36;;;;;;;85.50;36.93;;;8.40;99.90;;;;;;5033180;28;20245;-72
2024/03/05 08:41:02;;;;;;;75.40;36.57;;;8.40;99.90;;;;;;5033120;28;20175;-72
2024/03/05 08:43:30;;;;;;;83.83;36.87;;;8.40;99.90;;;;;;5032939;28;20257;-73
2024/03/05 08:45:56;;;;;;;87.27;37.00;;;8.40;99.90;;;;;;5032928;28;20214;-73
2024/03/05 08:48:21;;;;;;;80.97;38.47;;;8.40;99.90;;;;;;5032900;28;20188;-73
2024/03/05 08:50:47;;;;;;;90.57;38.80;;;8.40;99.90;;;;;;5033348;28;20198;-73
2024/03/05 08:53:14;;;;;;;87.00;37.23;;;8.40;99.90;;;;;;5032741;28;20175;-73
2024/03/05 08:55:39;;;;;;;97.30;38.20;;;8.40;99.90;;;;;;5032687;28;20248;-72
2024/03/05 08:58:05;;;;;;;86.90;36.90;;;8.40;99.90;;;;;;5032685;28;20184;-72
2024/03/05 09:00:33;;;;;;;79.90;37.23;;;8.40;99.90;;;;;;5032787;28;20539;-73
2024/03/05 09:02:59;;;;;;;84.27;37.90;;;8.40;99.90;;;;;;5032350;28;20203;-72
2024/03/05 09:05:24;;;;;;;94.83;39.83;;;8.50;99.90;;;;;;5032150;28;20689;-73
2024/03/05 09:07:50;;;;;;;94.33;39.00;;;8.40;99.90;;;;;;5032559;28;20639;-74
2024/03/05 09:10:17;;;;;;;88.30;39.63;;;8.50;99.90;;;;;;5032260;28;20171;-73
2024/03/05 09:12:44;;;;;;;98.60;39.50;;;8.50;99.90;;;;;;5032499;28;20168;-73
2024/03/05 09:15:12;;;;;;;82.33;37.67;;;8.50;99.90;;;;;;5032021;28;20183;-73
2024/03/05 09:17:37;;;;;;;90.43;37.83;;;8.50;99.90;;;;;;5032065;28;20172;-73
2024/03/05 09:20:13;;;;;;;90.13;37.23;;;8.50;99.90;;;;;;5032267;28;20179;-72
2024/03/05 09:22:44;;;;;;;89.77;39.97;;;8.50;99.90;;;;;;5031812;28;20195;-73
2024/03/05 09:25:13;;;;;;;91.23;38.87;;;8.60;99.90;;;;;;5032329;28;20188;-73
2024/03/05 09:27:40;;;;;;;88.67;38.23;;;8.50;99.90;;;;;;5032710;28;20725;-73
2024/03/05 09:30:08;;;;;;;83.63;37.57;;;8.50;99.90;;;;;;5035143;28;20172;-73
2024/03/05 09:32:35;;;;;;;86.57;37.23;;;8.60;99.90;;;;;;5033222;28;20263;-73
2024/03/05 09:35:01;;;;;;;83.33;38.23;;;8.60;99.90;;;;;;5014914;28;20195;-74
2024/03/05 09:37:28;;;;;;;88.90;37.17;;;8.50;99.90;;;;;;5031858;28;20175;-73
2024/03/05 09:39:54;;;;;;;92.83;39.17;;;8.60;99.90;;;;;;5031896;28;20218;-74
2024/03/05 09:42:20;;;;;;;85.17;38.60;;;8.60;99.90;;;;;;5031433;28;20291;-73
2024/03/05 09:44:48;;;;;;;86.63;38.87;;;8.70;99.90;;;;;;5013786;28;20203;-73
2024/03/05 09:47:17;;;;;;;96.70;36.13;;;8.80;99.90;;;;;;5031803;28;20168;-73
2024/03/05 09:49:44;;;;;;;86.53;37.10;;;8.80;99.90;;;;;;5031700;28;20647;-73
2024/03/05 09:52:11;;;;;;;89.47;36.57;;;8.80;99.90;;;;;;5031694;28;20198;-73
2024/03/05 09:54:38;;;;;;;98.67;38.17;;;8.80;99.90;;;;;;5031430;28;20199;-73
2024/03/05 09:57:04;;;;;;;90.53;37.63;;;8.90;99.90;;;;;;5031572;28;20230;-73
2024/03/05 09:59:30;;;;;;;86.97;37.07;;;8.90;99.90;;;;;;5031678;28;20584;-73
2024/03/05 10:01:56;;;;;;;85.43;38.17;;;9.00;99.90;;;;;;5031732;28;20176;-73
2024/03/05 10:04:26;;;;;;;93.13;38.13;;;9.00;99.90;;;;;;5031450;28;20218;-73
2024/03/05 10:06:51;;;;;;;89.87;37.40;;;9.00;99.90;;;;;;5031662;28;20210;-73
2024/03/05 10:09:17;;;;;;;87.00;38.20;;;9.00;99.90;;;;;;5031066;28;20168;-73
2024/03/05 10:11:44;;;;;;;93.87;39.70;;;9.00;99.90;;;;;;5031428;28;20262;-73
2024/03/05 10:14:11;;;;;;;81.13;35.97;;;9.00;99.90;;;;;;5030101;28;20196;-72
2024/03/05 10:16:38;;;;;;;102.23;41.47;;;9.10;99.90;;;;;;5030958;28;20171;-73
2024/03/05 10:19:15;;;;;;;99.87;40.47;;;9.20;99.90;;;;;;5031188;28;20533;-72
2024/03/05 10:21:41;;;;;;;84.83;38.00;;;9.30;99.90;;;;;;5031297;28;20643;-72
2024/03/05 10:24:09;;;;;;;92.23;39.87;;;9.20;99.90;;;;;;5031009;28;20195;-72
2024/03/05 10:26:36;;;;;;;86.33;37.67;;;9.30;99.90;;;;;;5030989;28;20546;-73
2024/03/05 10:29:11;;;;;;;94.93;38.83;;;9.30;99.90;;;;;;5031304;28;20246;-73
2024/03/05 10:31:46;;;;;;;85.90;35.93;;;9.40;99.90;;;;;;5031181;28;20175;-73
2024/03/05 10:34:15;;;;;;;76.70;36.20;;;9.50;99.90;;;;;;5032921;28;20650;-73
2024/03/05 10:36:42;;;;;;;82.90;35.33;;;9.70;99.90;;;;;;5035079;28;20171;-73
2024/03/05 10:39:12;;;;;;;88.13;36.27;;;9.70;99.90;;;;;;5035190;28;20182;-72
2024/03/05 10:41:39;;;;;;;77.47;36.67;;;9.80;99.90;;;;;;5035440;28;20526;-73
2024/03/05 10:44:10;;;;;;;79.93;35.50;;;9.90;99.90;;;;;;5035109;28;20211;-73
2024/03/05 10:46:38;;;;;;;71.50;34.10;;;9.90;99.90;;;;;;5034961;28;20172;-73
2024/03/05 10:49:07;;;;;;;74.50;33.57;;;10.00;99.90;;;;;;5035136;28;20167;-73
2024/03/05 10:51:37;;;;;;;70.73;32.97;;;10.00;99.90;;;;;;5036185;28;20176;-72
2024/03/05 10:54:06;;;;;;;77.13;33.10;;;10.00;99.90;;;;;;5036455;28;20309;-73
2024/03/05 10:56:35;;;;;;;64.83;32.10;;;9.90;99.90;;;;;;5034515;28;20191;-72
2024/03/05 11:01:47;;;;;;;64.23;32.13;;;9.70;99.90;;;;;;4994220;28;20246;-72
2024/03/05 11:04:20;;;;;;;61.27;31.67;;;9.80;99.90;;;;;;5035034;28;20192;-72
2024/03/05 11:06:51;;;;;;;74.33;32.53;;;9.80;99.90;;;;;;5034587;28;20168;-72
2024/03/05 11:09:19;;;;;;;72.43;32.23;;;9.80;99.90;;;;;;5017152;28;20224;-73
2024/03/05 11:11:48;;;;;;;69.00;33.20;;;9.90;99.90;;;;;;5035485;28;20191;-73
2024/03/05 11:14:15;;;;;;;72.67;33.10;;;9.90;99.90;;;;;;5034885;28;20214;-72
2024/03/05 11:16:45;;;;;;;62.00;30.00;;;9.90;99.90;;;;;;5034747;28;20171;-72
2024/03/05 11:19:11;;;;;;;57.00;28.20;;;9.80;99.90;;;;;;5034608;28;20163;-72
2024/03/05 11:21:41;;;;;;;50.50;29.17;;;9.70;99.90;;;;;;5034364;28;20175;-72
2024/03/05 11:24:07;;;;;;;56.43;28.67;;;9.70;99.90;;;;;;5034259;28;20721;-74
2024/03/05 11:26:34;;;;;;;50.00;27.50;;;9.60;99.90;;;;;;5034398;28;20175;-72
2024/03/05 11:29:27;;;;;;;45.97;26.80;;;9.50;99.90;;;;;;5034554;28;20275;-72
2024/03/05 11:31:53;;;;;;;45.20;26.77;;;9.50;99.90;;;;;;5034341;28;20267;-72
2024/03/05 11:34:20;;;;;;;45.40;27.10;;;9.50;99.90;;;;;;5034284;28;20190;-72
2024/03/05 11:37:05;;;;;;;46.60;27.27;;;9.40;99.90;;;;;;5034375;28;20179;-72
2024/03/05 11:39:30;;;;;;;42.27;26.07;;;9.50;99.90;;;;;;5034041;28;20250;-72
2024/03/05 11:41:59;;;;;;;47.60;25.57;;;9.50;99.90;;;;;;5034178;28;20191;-73
2024/03/05 11:44:41;;;;;;;44.17;27.73;;;9.50;99.90;;;;;;5033405;28;20207;-72
2024/03/05 11:47:07;;;;;;;53.10;27.00;;;9.60;99.90;;;;;;5034380;28;20190;-73
2024/03/05 11:49:35;;;;;;;42.20;26.50;;;9.50;99.90;;;;;;5034156;28;20176;-74
2024/03/05 11:52:01;;;;;;;44.80;25.57;;;9.50;99.90;;;;;;5034157;28;20168;-72
2024/03/05 11:54:27;;;;;;;43.10;24.93;;;9.50;99.90;;;;;;5033883;28;20322;-72
2024/03/05 11:56:59;;;;;;;41.77;25.53;;;9.50;99.90;;;;;;5034201;28;20178;-72
2024/03/05 11:59:40;;;;;;;43.37;25.33;;;9.50;99.90;;;;;;5033936;28;20176;-74
2024/03/05 12:02:15;;;;;;;40.63;24.17;;;9.50;99.90;;;;;;5033542;28;20195;-72
2024/03/05 12:04:41;;;;;;;38.33;23.53;;;9.50;99.90;;;;;;5033678;28;20252;-72
2024/03/05 12:07:10;;;;;;;47.83;26.27;;;9.50;99.90;;;;;;5033844;28;20179;-72
2024/03/05 12:09:39;;;;;;;48.93;26.57;;;9.60;99.90;;;;;;5033850;28;20259;-72
2024/03/05 12:12:09;;;;;;;49.80;28.00;;;9.70;99.90;;;;;;5033932;28;20164;-72
2024/03/05 12:14:37;;;;;;;44.70;26.67;;;9.80;99.90;;;;;;5034917;28;20214;-73
2024/03/05 12:17:04;;;;;;;40.77;24.40;;;9.90;99.90;;;;;;5034260;28;20176;-72
2024/03/05 12:19:33;;;;;;;45.67;26.40;;;9.90;99.90;;;;;;5033522;28;20448;-72
2024/03/05 12:22:00;;;;;;;52.57;27.50;;;10.00;99.90;;;;;;5033317;28;20221;-72
2024/03/05 12:24:29;;;;;;;38.97;25.30;;;10.10;99.90;;;;;;5033257;28;20210;-72
2024/03/05 12:26:56;;;;;;;41.83;25.53;;;10.20;99.90;;;;;;5033510;28;20171;-72
2024/03/05 12:29:29;;;;;;;39.33;26.67;;;10.20;99.90;;;;;;5033535;28;20167;-72
2024/03/05 12:31:56;;;;;;;37.90;23.00;;;10.20;99.90;;;;;;5033421;28;20179;-72
2024/03/05 12:34:22;;;;;;;35.87;23.23;;;10.20;99.90;;;;;;5032662;28;20188;-72
2024/03/05 12:36:49;;;;;;;36.03;22.60;;;10.20;99.90;;;;;;5033298;28;20662;-72
2024/03/05 12:39:18;;;;;;;43.43;23.37;;;10.20;99.90;;;;;;5033294;28;20570;-72
2024/03/05 12:41:56;;;;;;;36.40;22.47;;;10.10;99.90;;;;;;5033461;28;20175;-72
2024/03/05 12:44:23;;;;;;;35.47;22.40;;;10.10;99.90;;;;;;5032676;28;20705;-72